createdAt,value
2023-04-26T00:00:22.729Z,1.70
2023-04-26T00:03:04.255Z,1.80
2023-04-26T00:05:46.833Z,1.70
2023-04-26T00:08:26.059Z,2.00
2023-04-26T00:11:08.846Z,2.20
2023-04-26T00:13:48.880Z,1.90
2023-04-26T00:16:27.607Z,1.80
2023-04-26T00:19:05.911Z,1.70
2023-04-26T00:21:43.758Z,1.80
2023-04-26T00:24:22.582Z,1.60
2023-04-26T00:27:05.805Z,1.40
2023-04-26T00:29:43.466Z,2.10
2023-04-26T00:32:24.134Z,2.00
2023-04-26T00:35:03.993Z,1.80
2023-04-26T00:37:42.937Z,1.90
2023-04-26T00:40:27.429Z,2.10
2023-04-26T00:43:08.760Z,1.60
2023-04-26T00:45:47.658Z,1.40
2023-04-26T00:48:27.008Z,1.70
2023-04-26T00:51:05.576Z,1.80
2023-04-26T00:53:44.975Z,1.50
2023-04-26T00:56:27.303Z,2.00
2023-04-26T00:59:06.374Z,1.90
2023-04-26T01:01:45.352Z,2.00
2023-04-26T01:04:26.851Z,1.80
2023-04-26T01:07:05.893Z,1.90
2023-04-26T01:09:45.129Z,1.60
2023-04-26T01:12:23.917Z,1.50
2023-04-26T01:15:03.038Z,1.90
2023-04-26T01:17:42.069Z,1.50
2023-04-26T01:20:22.443Z,1.40
2023-04-26T01:23:00.650Z,1.10
2023-04-26T01:25:40.180Z,1.20
2023-04-26T01:28:19.309Z,1.10
2023-04-26T01:30:58.804Z,1.30
2023-04-26T01:33:38.513Z,1.20
2023-04-26T01:36:20.077Z,1.20
2023-04-26T01:38:57.975Z,1.30
2023-04-26T01:41:36.073Z,1.20
2023-04-26T01:44:15.765Z,1.30
2023-04-26T01:46:55.020Z,1.60
2023-04-26T01:49:37.205Z,1.40
2023-04-26T01:52:18.281Z,1.30
2023-04-26T01:54:58.644Z,1.40
2023-04-26T01:57:38.290Z,1.40
2023-04-26T02:00:24.128Z,1.30
2023-04-26T02:03:04.717Z,1.20
2023-04-26T02:05:42.687Z,1.40
2023-04-26T02:08:21.922Z,1.10
2023-04-26T02:11:02.901Z,1.30
2023-04-26T02:13:41.817Z,1.40
2023-04-26T02:16:21.928Z,1.10
2023-04-26T02:19:03.430Z,1.00
2023-04-26T02:22:00.280Z,1.30
2023-04-26T02:24:44.453Z,1.30
2023-04-26T02:27:24.897Z,1.30
2023-04-26T02:30:05.866Z,1.10
2023-04-26T02:32:46.574Z,1.20
2023-04-26T02:35:25.730Z,1.20
2023-04-26T02:38:07.325Z,1.30
2023-04-26T02:40:47.511Z,1.10
2023-04-26T02:43:29.831Z,1.10
2023-04-26T02:46:17.231Z,1.00
2023-04-26T02:48:58.833Z,1.10
2023-04-26T02:51:38.073Z,1.40
2023-04-26T02:54:17.709Z,1.20
2023-04-26T02:56:56.913Z,1.10
2023-04-26T02:59:36.744Z,1.10
2023-04-26T03:02:16.040Z,1.20
2023-04-26T03:04:55.357Z,1.10
2023-04-26T03:07:34.707Z,1.00
2023-04-26T03:10:17.781Z,1.10
2023-04-26T03:12:56.253Z,1.00
2023-04-26T03:15:35.642Z,1.10
2023-04-26T03:18:15.414Z,1.10
2023-04-26T03:20:59.494Z,1.10
2023-04-26T03:23:38.797Z,1.00
2023-04-26T03:26:17.934Z,1.30
2023-04-26T03:28:57.364Z,1.10
2023-04-26T03:31:35.762Z,1.20
2023-04-26T03:34:14.105Z,0.80
2023-04-26T03:36:51.992Z,1.20
2023-04-26T03:39:31.807Z,1.00
2023-04-26T03:42:11.218Z,1.10
2023-04-26T03:44:50.501Z,1.00
2023-04-26T03:47:28.532Z,1.10
2023-04-26T03:50:08.427Z,0.90
2023-04-26T03:52:46.154Z,1.00
2023-04-26T03:55:26.315Z,1.10
2023-04-26T03:58:03.925Z,1.10
2023-04-26T04:00:44.693Z,1.00
2023-04-26T04:03:23.044Z,1.20
2023-04-26T04:06:04.388Z,1.20
2023-04-26T04:08:44.751Z,1.30
2023-04-26T04:11:23.492Z,1.00
2023-04-26T04:14:01.737Z,1.10
2023-04-26T04:16:39.685Z,1.10
2023-04-26T04:19:17.987Z,1.00
2023-04-26T04:21:56.888Z,0.90
2023-04-26T04:24:36.771Z,1.10
2023-04-26T04:27:14.541Z,1.10
2023-04-26T04:29:52.987Z,1.40
2023-04-26T04:32:33.274Z,1.30
2023-04-26T04:35:13.615Z,1.70
2023-04-26T04:37:53.145Z,1.40
2023-04-26T04:40:31.023Z,1.40
2023-04-26T04:43:09.307Z,1.50
2023-04-26T04:45:48.157Z,1.50
2023-04-26T04:48:25.650Z,1.30
2023-04-26T04:51:02.912Z,1.10
2023-04-26T04:53:41.212Z,1.50
2023-04-26T04:56:20.590Z,1.60
2023-04-26T04:58:59.339Z,1.20
2023-04-26T05:01:37.380Z,1.20
2023-04-26T05:04:19.919Z,1.00
2023-04-26T05:06:59.083Z,1.20
2023-04-26T05:09:38.723Z,1.30
2023-04-26T05:12:17.350Z,1.10
2023-04-26T05:14:55.870Z,1.10
2023-04-26T05:17:35.169Z,1.00
2023-04-26T05:20:24.868Z,1.10
2023-04-26T05:23:02.099Z,1.10
2023-04-26T05:25:45.280Z,1.10
2023-04-26T05:28:41.975Z,1.20
2023-04-26T05:31:42.113Z,1.10
2023-04-26T05:34:53.440Z,1.20
2023-04-26T05:37:35.032Z,1.00
2023-04-26T05:40:21.121Z,1.10
2023-04-26T05:43:00.809Z,1.30
2023-04-26T05:45:42.322Z,1.30
2023-04-26T05:48:19.625Z,1.40
2023-04-26T05:51:00.132Z,1.50
2023-04-26T05:53:40.708Z,1.30
2023-04-26T05:56:22.527Z,1.40
2023-04-26T05:59:01.715Z,1.40
2023-04-26T06:01:42.366Z,1.30
2023-04-26T06:04:24.444Z,1.40
2023-04-26T06:07:14.157Z,1.20
2023-04-26T06:09:56.057Z,1.40
2023-04-26T06:12:38.963Z,1.20
2023-04-26T06:15:22.205Z,1.30
2023-04-26T06:18:02.889Z,1.30
2023-04-26T06:20:43.369Z,1.20
2023-04-26T06:23:24.412Z,1.20
2023-04-26T06:26:06.028Z,1.40
2023-04-26T06:28:46.030Z,1.50
2023-04-26T06:31:28.507Z,1.80
2023-04-26T06:34:11.691Z,1.70
2023-04-26T06:36:50.915Z,1.80
2023-04-26T06:39:31.611Z,1.60
2023-04-26T06:42:10.938Z,1.60
2023-04-26T06:45:03.385Z,1.60
2023-04-26T06:47:45.292Z,1.40
2023-04-26T06:50:24.216Z,1.90
2023-04-26T06:53:06.724Z,2.00
2023-04-26T06:55:47.877Z,1.70
2023-04-26T06:58:32.359Z,1.90
2023-04-26T07:01:12.636Z,1.80
2023-04-26T07:03:52.764Z,2.10
2023-04-26T07:06:32.825Z,1.80
2023-04-26T07:09:12.356Z,1.30
2023-04-26T07:11:52.493Z,1.30
2023-04-26T07:14:32.680Z,1.50
2023-04-26T07:17:12.957Z,1.40
2023-04-26T07:19:56.313Z,1.40
2023-04-26T07:22:36.742Z,1.50
2023-04-26T07:25:27.650Z,1.40
2023-04-26T07:28:08.132Z,1.40
2023-04-26T07:30:49.470Z,1.60
2023-04-26T07:33:32.012Z,1.70
2023-04-26T07:36:19.435Z,1.30
2023-04-26T07:39:03.859Z,1.80
2023-04-26T07:41:48.112Z,1.30
2023-04-26T07:44:33.761Z,1.80
2023-04-26T07:47:20.552Z,1.20
2023-04-26T07:50:06.648Z,1.20
2023-04-26T07:52:49.252Z,1.30
2023-04-26T07:55:32.272Z,1.40
2023-04-26T07:58:16.238Z,1.10
2023-04-26T08:00:56.174Z,1.00
2023-04-26T08:03:38.533Z,0.90
2023-04-26T08:06:21.295Z,1.10
2023-04-26T08:09:07.403Z,1.00
2023-04-26T08:11:49.016Z,1.10
2023-04-26T08:14:29.539Z,1.10
2023-04-26T08:17:08.275Z,0.90
2023-04-26T08:20:01.382Z,1.00
2023-04-26T08:22:46.059Z,0.90
2023-04-26T08:25:26.253Z,1.30
2023-04-26T08:28:05.861Z,1.00
2023-04-26T08:30:46.595Z,1.10
2023-04-26T08:33:29.610Z,0.90
2023-04-26T08:36:13.373Z,0.90
2023-04-26T08:38:53.955Z,1.10
2023-04-26T08:41:33.850Z,1.10
2023-04-26T08:44:16.018Z,1.20
2023-04-26T08:47:09.848Z,1.10
2023-04-26T08:50:00.094Z,1.10
2023-04-26T08:52:44.090Z,1.00
2023-04-26T08:55:25.152Z,1.20
2023-04-26T08:58:07.962Z,1.40
2023-04-26T09:00:56.008Z,1.10
2023-04-26T09:03:37.588Z,1.10
2023-04-26T09:06:19.913Z,1.20
2023-04-26T09:09:03.439Z,1.10
2023-04-26T09:11:57.013Z,1.30
2023-04-26T09:14:38.022Z,1.10
2023-04-26T09:17:31.520Z,1.20
2023-04-26T09:20:26.794Z,1.10
2023-04-26T09:23:17.299Z,1.20
2023-04-26T09:25:56.503Z,1.30
2023-04-26T09:28:36.865Z,1.20
2023-04-26T09:31:26.489Z,1.30
2023-04-26T09:34:12.542Z,1.70
2023-04-26T09:37:02.651Z,1.30
2023-04-26T09:39:44.237Z,1.40
2023-04-26T09:42:27.747Z,1.20
2023-04-26T09:45:19.580Z,2.00
2023-04-26T09:47:59.540Z,2.40
2023-04-26T09:50:40.398Z,2.00
2023-04-26T09:53:30.411Z,1.90
2023-04-26T09:56:17.806Z,1.80
2023-04-26T09:59:07.176Z,1.90
2023-04-26T10:01:45.078Z,2.00
2023-04-26T10:04:23.824Z,2.20
2023-04-26T10:07:02.106Z,2.20
2023-04-26T10:09:41.939Z,2.00
2023-04-26T10:12:21.028Z,2.50
2023-04-26T10:15:00.404Z,2.50
2023-04-26T10:17:42.673Z,2.50
2023-04-26T10:20:27.278Z,2.00
2023-04-26T10:23:17.313Z,2.60
2023-04-26T10:25:58.340Z,2.80
2023-04-26T10:29:06.606Z,2.20
2023-04-26T10:32:17.529Z,2.80
2023-04-26T10:35:20.353Z,2.00
2023-04-26T10:38:19.006Z,2.00
2023-04-26T10:41:40.444Z,2.60
2023-04-26T10:44:52.444Z,3.70
2023-04-26T10:47:39.528Z,3.20
2023-04-26T10:50:21.206Z,3.40
2023-04-26T10:53:16.362Z,2.60
2023-04-26T10:55:54.648Z,2.90
2023-04-26T10:58:37.865Z,3.00
2023-04-26T11:01:19.337Z,2.80
2023-04-26T11:07:08.915Z,2.90
2023-04-26T11:09:55.349Z,2.60
2023-04-26T11:12:33.691Z,2.90
2023-04-26T11:15:18.744Z,3.00
2023-04-26T11:17:58.072Z,3.50
2023-04-26T11:20:40.171Z,3.40
2023-04-26T11:23:18.815Z,3.00
2023-04-26T11:25:58.025Z,3.10
2023-04-26T11:28:38.534Z,2.70
2023-04-26T11:31:16.753Z,2.80
2023-04-26T11:33:56.068Z,3.00
2023-04-26T11:36:35.359Z,3.70
2023-04-26T11:39:14.298Z,3.40
2023-04-26T11:41:54.045Z,4.00
2023-04-26T11:44:31.947Z,3.10
2023-04-26T11:47:11.394Z,4.00
2023-04-26T11:49:49.946Z,3.80
2023-04-26T11:52:29.295Z,3.70
2023-04-26T11:55:21.198Z,4.20
2023-04-26T11:58:00.716Z,4.10
2023-04-26T12:00:39.904Z,4.00
2023-04-26T12:03:18.850Z,4.30
2023-04-26T12:06:03.402Z,4.30
2023-04-26T12:08:41.797Z,4.20
2023-04-26T12:11:22.121Z,3.80
2023-04-26T12:14:00.456Z,3.10
2023-04-26T12:16:41.472Z,3.50
2023-04-26T12:19:20.063Z,4.80
2023-04-26T12:21:58.796Z,5.60
2023-04-26T12:24:38.217Z,4.30
2023-04-26T12:27:26.640Z,4.70
2023-04-26T12:30:05.055Z,4.70
2023-04-26T12:32:45.141Z,4.60
2023-04-26T12:35:23.783Z,4.50
2023-04-26T12:38:01.751Z,4.40
2023-04-26T12:40:41.620Z,3.30
2023-04-26T12:43:24.436Z,4.10
2023-04-26T12:46:05.901Z,2.80
2023-04-26T12:48:50.452Z,3.40
2023-04-26T12:51:30.294Z,4.00
2023-04-26T12:54:13.029Z,4.60
2023-04-26T12:56:52.136Z,5.00
2023-04-26T12:59:32.624Z,4.50
2023-04-26T13:02:13.496Z,3.80
2023-04-26T13:04:55.084Z,4.00
2023-04-26T13:07:43.096Z,3.90
2023-04-26T13:10:24.711Z,4.00
2023-04-26T13:13:05.070Z,4.00
2023-04-26T13:15:44.546Z,3.10
2023-04-26T13:18:24.352Z,3.00
2023-04-26T13:21:03.636Z,3.00
2023-04-26T13:23:43.501Z,2.70
2023-04-26T13:26:27.103Z,2.70
2023-04-26T13:29:11.186Z,2.40
2023-04-26T13:31:51.306Z,2.30
2023-04-26T13:34:30.192Z,3.00
2023-04-26T13:37:12.467Z,3.10
2023-04-26T13:39:51.739Z,2.80
2023-04-26T13:42:30.482Z,2.60
2023-04-26T13:45:15.231Z,1.90
2023-04-26T13:47:55.409Z,3.10
2023-04-26T13:50:35.333Z,3.20
2023-04-26T13:53:15.553Z,3.00
2023-04-26T13:55:54.310Z,3.00
2023-04-26T13:58:32.439Z,2.80
2023-04-26T14:01:13.428Z,2.60
2023-04-26T14:03:55.905Z,2.80
2023-04-26T14:06:38.175Z,2.30
2023-04-26T14:09:17.900Z,2.50
2023-04-26T14:12:07.960Z,2.60
2023-04-26T14:14:49.494Z,2.40
2023-04-26T14:17:31.010Z,3.00
2023-04-26T14:20:24.212Z,3.20
2023-04-26T14:23:08.163Z,2.80
2023-04-26T14:25:56.302Z,2.90
2023-04-26T14:28:36.048Z,2.50
2023-04-26T14:31:18.340Z,2.60
2023-04-26T14:33:59.955Z,2.50
2023-04-26T14:36:41.752Z,2.30
2023-04-26T14:39:24.864Z,2.20
2023-04-26T14:42:06.395Z,2.10
2023-04-26T14:44:46.922Z,2.30
2023-04-26T14:47:28.659Z,2.20
2023-04-26T14:50:10.371Z,2.20
2023-04-26T14:52:50.489Z,1.70
2023-04-26T14:55:30.873Z,2.00
2023-04-26T14:58:10.443Z,2.30
2023-04-26T15:00:52.451Z,2.60
2023-04-26T15:03:31.842Z,2.60
2023-04-26T15:06:13.170Z,2.70
2023-04-26T15:08:53.224Z,2.40
2023-04-26T15:11:34.185Z,1.80
2023-04-26T15:14:12.666Z,2.10
2023-04-26T15:16:50.567Z,2.10
2023-04-26T15:19:28.851Z,2.30
2023-04-26T15:22:08.599Z,2.20
2023-04-26T15:24:47.799Z,2.60
2023-04-26T15:27:27.415Z,2.40
2023-04-26T15:30:06.262Z,2.40
2023-04-26T15:32:44.533Z,2.30
2023-04-26T15:35:22.873Z,2.40
2023-04-26T15:38:01.942Z,2.30
2023-04-26T15:40:41.348Z,2.70
2023-04-26T15:43:20.632Z,2.40
2023-04-26T15:46:02.207Z,2.40
2023-04-26T15:48:41.203Z,2.60
2023-04-26T15:51:18.965Z,2.40
2023-04-26T15:53:57.949Z,2.20
2023-04-26T15:56:35.377Z,2.30
2023-04-26T15:59:14.232Z,2.60
2023-04-26T16:01:51.967Z,2.30
2023-04-26T16:04:31.477Z,2.40
2023-04-26T16:07:10.153Z,2.60
2023-04-26T16:09:49.714Z,2.70
2023-04-26T16:12:31.311Z,2.70
2023-04-26T16:15:13.597Z,2.40
2023-04-26T16:17:54.404Z,2.70
2023-04-26T16:20:35.257Z,2.40
2023-04-26T16:23:15.593Z,2.50
2023-04-26T16:26:06.093Z,2.30
2023-04-26T16:28:44.092Z,2.30
2023-04-26T16:31:28.100Z,2.50
2023-04-26T16:34:08.313Z,2.70
2023-04-26T16:36:51.350Z,2.80
2023-04-26T16:39:29.351Z,3.10
2023-04-26T16:42:08.986Z,2.60
2023-04-26T16:44:47.715Z,2.90
2023-04-26T16:47:28.584Z,2.70
2023-04-26T16:50:07.207Z,2.80
2023-04-26T16:52:48.098Z,2.70
2023-04-26T16:55:30.182Z,3.00
2023-04-26T16:58:11.426Z,2.80
2023-04-26T17:00:49.870Z,2.90
2023-04-26T17:03:31.424Z,3.30
2023-04-26T17:06:13.310Z,3.30
2023-04-26T17:08:53.089Z,3.50
2023-04-26T17:11:33.648Z,3.60
2023-04-26T17:14:14.857Z,3.60
2023-04-26T17:16:57.214Z,4.00
2023-04-26T17:19:39.995Z,6.00
2023-04-26T17:22:19.085Z,5.30
2023-04-26T17:25:00.603Z,4.60
2023-04-26T17:27:42.305Z,5.00
2023-04-26T17:30:34.262Z,4.30
2023-04-26T17:33:14.598Z,2.80
2023-04-26T17:35:55.282Z,2.90
2023-04-26T17:38:34.072Z,2.30
2023-04-26T17:41:15.864Z,2.70
2023-04-26T17:43:56.720Z,2.40
2023-04-26T17:46:37.631Z,2.70
2023-04-26T17:49:21.879Z,3.00
2023-04-26T17:52:02.792Z,3.00
2023-04-26T17:54:45.297Z,2.60
2023-04-26T17:57:27.887Z,2.60
2023-04-26T18:00:07.399Z,3.10
2023-04-26T18:02:46.591Z,2.70
2023-04-26T18:05:26.991Z,2.60
2023-04-26T18:08:04.324Z,3.40
2023-04-26T18:10:41.572Z,3.10
2023-04-26T18:13:19.820Z,3.40
2023-04-26T18:16:13.708Z,3.00
2023-04-26T18:18:52.368Z,2.90
2023-04-26T18:21:31.020Z,3.00
2023-04-26T18:24:10.190Z,2.60
2023-04-26T18:26:48.166Z,2.40
2023-04-26T18:29:25.934Z,2.90
2023-04-26T18:32:05.411Z,2.80
2023-04-26T18:34:44.423Z,3.20
2023-04-26T18:37:22.349Z,2.80
2023-04-26T18:40:01.465Z,2.40
2023-04-26T18:42:39.858Z,3.30
2023-04-26T18:45:23.175Z,3.00
2023-04-26T18:48:02.384Z,3.00
2023-04-26T18:50:39.797Z,3.10
2023-04-26T18:53:18.847Z,3.20
2023-04-26T18:55:56.330Z,2.80
2023-04-26T18:58:34.050Z,2.80
2023-04-26T19:01:13.980Z,3.40
2023-04-26T19:03:51.740Z,3.00
2023-04-26T19:06:30.240Z,3.00
2023-04-26T19:09:09.506Z,2.80
2023-04-26T19:11:47.244Z,2.90
2023-04-26T19:14:26.433Z,3.60
2023-04-26T19:17:04.809Z,3.00
2023-04-26T19:19:43.898Z,3.40
2023-04-26T19:22:23.760Z,3.30
2023-04-26T19:25:01.274Z,2.80
2023-04-26T19:27:39.757Z,3.30
2023-04-26T19:30:22.716Z,3.10
2023-04-26T19:33:00.764Z,2.90
2023-04-26T19:35:41.123Z,3.00
2023-04-26T19:38:25.393Z,3.10
2023-04-26T19:41:08.669Z,2.90
2023-04-26T19:43:47.963Z,3.00
2023-04-26T19:46:29.380Z,3.20
2023-04-26T19:49:10.674Z,3.50
2023-04-26T19:51:51.683Z,3.40
2023-04-26T19:54:32.966Z,3.10
2023-04-26T19:57:15.290Z,3.20
2023-04-26T19:59:56.479Z,3.30
2023-04-26T20:02:38.984Z,3.00
2023-04-26T20:05:21.581Z,3.10
2023-04-26T20:08:01.703Z,3.30
2023-04-26T20:10:42.397Z,2.90
2023-04-26T20:13:22.276Z,3.30
2023-04-26T20:16:03.095Z,3.40
2023-04-26T20:18:43.934Z,3.00
2023-04-26T20:21:28.865Z,3.60
2023-04-26T20:24:15.090Z,3.50
2023-04-26T20:26:56.127Z,3.30
2023-04-26T20:29:41.092Z,3.30
2023-04-26T20:32:24.573Z,3.10
2023-04-26T20:35:08.029Z,3.10
2023-04-26T20:37:51.205Z,3.40
2023-04-26T20:40:32.661Z,2.80
2023-04-26T20:43:18.031Z,3.00
2023-04-26T20:46:02.925Z,3.30
2023-04-26T20:48:48.991Z,2.90
2023-04-26T20:51:31.373Z,3.10
2023-04-26T20:54:19.747Z,3.10
2023-04-26T20:57:01.948Z,2.80
2023-04-26T20:59:45.318Z,3.00
2023-04-26T21:02:33.222Z,3.20
2023-04-26T21:05:19.297Z,3.20
2023-04-26T21:08:02.324Z,3.40
2023-04-26T21:10:45.317Z,3.50
2023-04-26T21:13:27.417Z,3.00
2023-04-26T21:16:15.006Z,3.60
2023-04-26T21:18:58.817Z,3.00
2023-04-26T21:21:44.500Z,2.70
2023-04-26T21:24:27.222Z,3.10
2023-04-26T21:27:14.617Z,3.00
2023-04-26T21:29:58.214Z,2.90
2023-04-26T21:32:41.737Z,3.40
2023-04-26T21:35:34.946Z,2.80
2023-04-26T21:41:09.569Z,2.70
2023-04-26T21:43:45.965Z,3.10
2023-04-26T21:46:23.511Z,2.70
2023-04-26T21:49:00.466Z,3.10
2023-04-26T21:51:37.633Z,2.90
2023-04-26T21:54:14.279Z,3.20
2023-04-26T21:56:51.287Z,2.80
2023-04-26T21:59:28.550Z,3.00
2023-04-26T22:02:05.539Z,2.60
2023-04-26T22:04:44.983Z,2.90
2023-04-26T22:07:21.897Z,2.70
2023-04-26T22:09:59.659Z,2.80
2023-04-26T22:12:35.740Z,3.10
2023-04-26T22:15:16.146Z,2.80
2023-04-26T22:17:52.936Z,2.70
2023-04-26T22:20:30.863Z,2.50
2023-04-26T22:23:07.852Z,2.90
2023-04-26T22:25:45.527Z,2.50
2023-04-26T22:28:23.025Z,2.50
2023-04-26T22:31:00.270Z,3.10
2023-04-26T22:33:37.968Z,3.00
2023-04-26T22:36:17.240Z,3.10
2023-04-26T22:38:54.704Z,2.70
2023-04-26T22:41:31.650Z,2.60
2023-04-26T22:44:09.177Z,2.30
2023-04-26T22:46:46.461Z,2.60
2023-04-26T22:49:23.633Z,2.60
2023-04-26T22:52:07.686Z,3.00
2023-04-26T22:54:48.978Z,2.50
2023-04-26T22:57:26.233Z,2.60
2023-04-26T23:00:04.852Z,2.70
2023-04-26T23:03:06.496Z,2.50
2023-04-26T23:05:54.981Z,3.00
2023-04-26T23:08:38.334Z,2.50
2023-04-26T23:11:21.455Z,2.60
2023-04-26T23:14:04.060Z,2.70
2023-04-26T23:16:48.354Z,2.30
2023-04-26T23:19:30.311Z,2.20
2023-04-26T23:22:14.661Z,2.60
2023-04-26T23:25:50.554Z,2.30
2023-04-26T23:28:34.374Z,2.40
2023-04-26T23:31:18.430Z,2.40
2023-04-26T23:33:59.999Z,2.50
2023-04-26T23:36:48.759Z,2.50
2023-04-26T23:39:29.416Z,2.60
2023-04-26T23:42:11.108Z,2.60
2023-04-26T23:44:54.345Z,2.30
2023-04-26T23:47:35.561Z,2.50
2023-04-26T23:50:21.401Z,2.40
2023-04-26T23:53:16.401Z,2.10
2023-04-26T23:55:56.559Z,2.10
2023-04-26T23:58:42.329Z,2.10
